sensor_id;sensor_type;location;lat;lon;timestamp;P1;durP1;ratioP1;P2;durP2;ratioP2
10867;SDS011;62667;48.698;8.762;2023-02-11T00:00:59;2.67;;;2.47;;
10867;SDS011;62667;48.698;8.762;2023-02-11T00:03:31;4.53;;;4.13;;
10867;SDS011;62667;48.698;8.762;2023-02-11T00:06:00;3.37;;;2.70;;
10867;SDS011;62667;48.698;8.762;2023-02-11T00:08:30;6.87;;;4.33;;
10867;SDS011;62667;48.698;8.762;2023-02-11T00:10:57;5.60;;;4.33;;
10867;SDS011;62667;48.698;8.762;2023-02-11T00:13:25;4.43;;;4.10;;
10867;SDS011;62667;48.698;8.762;2023-02-11T00:15:53;4.93;;;3.10;;
10867;SDS011;62667;48.698;8.762;2023-02-11T00:18:21;9.27;;;4.83;;
10867;SDS011;62667;48.698;8.762;2023-02-11T00:20:48;4.70;;;4.30;;
10867;SDS011;62667;48.698;8.762;2023-02-11T00:23:17;4.30;;;4.00;;
10867;SDS011;62667;48.698;8.762;2023-02-11T00:25:45;16.17;;;4.50;;
10867;SDS011;62667;48.698;8.762;2023-02-11T00:28:12;3.47;;;3.17;;
10867;SDS011;62667;48.698;8.762;2023-02-11T00:30:39;6.30;;;5.80;;
10867;SDS011;62667;48.698;8.762;2023-02-11T00:33:07;4.37;;;3.97;;
10867;SDS011;62667;48.698;8.762;2023-02-11T00:35:35;3.83;;;3.30;;
10867;SDS011;62667;48.698;8.762;2023-02-11T00:38:03;5.80;;;3.93;;
10867;SDS011;62667;48.698;8.762;2023-02-11T00:40:32;5.13;;;3.33;;
10867;SDS011;62667;48.698;8.762;2023-02-11T00:42:59;5.53;;;4.93;;
10867;SDS011;62667;48.698;8.762;2023-02-11T00:45:26;6.20;;;4.23;;
10867;SDS011;62667;48.698;8.762;2023-02-11T00:47:54;5.47;;;4.13;;
10867;SDS011;62667;48.698;8.762;2023-02-11T00:50:22;3.57;;;3.27;;
10867;SDS011;62667;48.698;8.762;2023-02-11T00:52:50;4.80;;;4.10;;
10867;SDS011;62667;48.698;8.762;2023-02-11T00:55:17;6.77;;;4.07;;
10867;SDS011;62667;48.698;8.762;2023-02-11T00:57:46;7.50;;;3.47;;
10867;SDS011;62667;48.698;8.762;2023-02-11T01:00:14;2.10;;;2.00;;
10867;SDS011;62667;48.698;8.762;2023-02-11T01:02:42;3.23;;;2.93;;
10867;SDS011;62667;48.698;8.762;2023-02-11T01:05:09;6.70;;;5.47;;
10867;SDS011;62667;48.698;8.762;2023-02-11T01:07:36;4.77;;;3.83;;
10867;SDS011;62667;48.698;8.762;2023-02-11T01:10:04;5.50;;;3.60;;
10867;SDS011;62667;48.698;8.762;2023-02-11T01:12:32;5.30;;;3.90;;
10867;SDS011;62667;48.698;8.762;2023-02-11T01:15:01;4.77;;;4.10;;
10867;SDS011;62667;48.698;8.762;2023-02-11T01:17:29;3.83;;;3.53;;
10867;SDS011;62667;48.698;8.762;2023-02-11T01:19:56;3.70;;;3.30;;
10867;SDS011;62667;48.698;8.762;2023-02-11T01:22:23;3.37;;;2.90;;
10867;SDS011;62667;48.698;8.762;2023-02-11T01:24:51;5.17;;;4.73;;
10867;SDS011;62667;48.698;8.762;2023-02-11T01:27:18;5.03;;;3.90;;
10867;SDS011;62667;48.698;8.762;2023-02-11T01:29:46;8.97;;;3.40;;
10867;SDS011;62667;48.698;8.762;2023-02-11T01:32:14;3.60;;;3.37;;
10867;SDS011;62667;48.698;8.762;2023-02-11T01:34:42;5.80;;;2.83;;
10867;SDS011;62667;48.698;8.762;2023-02-11T01:37:09;1.60;;;1.60;;
10867;SDS011;62667;48.698;8.762;2023-02-11T01:39:37;5.73;;;3.37;;
10867;SDS011;62667;48.698;8.762;2023-02-11T01:42:04;3.00;;;2.80;;
10867;SDS011;62667;48.698;8.762;2023-02-11T01:44:33;5.50;;;4.47;;
10867;SDS011;62667;48.698;8.762;2023-02-11T01:47:02;3.77;;;3.47;;
10867;SDS011;62667;48.698;8.762;2023-02-11T01:49:32;6.30;;;2.90;;
10867;SDS011;62667;48.698;8.762;2023-02-11T01:52:03;14.50;;;4.90;;
10867;SDS011;62667;48.698;8.762;2023-02-11T01:54:35;4.23;;;3.93;;
10867;SDS011;62667;48.698;8.762;2023-02-11T01:57:25;10.33;;;5.60;;
10867;SDS011;62667;48.698;8.762;2023-02-11T01:59:59;3.60;;;3.30;;
10867;SDS011;62667;48.698;8.762;2023-02-11T02:02:32;2.40;;;2.30;;
10867;SDS011;62667;48.698;8.762;2023-02-11T02:05:07;3.63;;;3.33;;
10867;SDS011;62667;48.698;8.762;2023-02-11T02:07:44;4.23;;;2.77;;
10867;SDS011;62667;48.698;8.762;2023-02-11T02:10:20;2.30;;;2.13;;
10867;SDS011;62667;48.698;8.762;2023-02-11T02:12:50;5.80;;;3.17;;
10867;SDS011;62667;48.698;8.762;2023-02-11T02:15:19;8.40;;;3.63;;
10867;SDS011;62667;48.698;8.762;2023-02-11T02:17:54;7.27;;;3.43;;
10867;SDS011;62667;48.698;8.762;2023-02-11T02:23:24;5.10;;;4.20;;
10867;SDS011;62667;48.698;8.762;2023-02-11T02:26:07;3.97;;;2.67;;
10867;SDS011;62667;48.698;8.762;2023-02-11T02:31:52;3.63;;;3.37;;
10867;SDS011;62667;48.698;8.762;2023-02-11T02:34:40;4.97;;;4.50;;
10867;SDS011;62667;48.698;8.762;2023-02-11T02:37:16;8.43;;;5.60;;
10867;SDS011;62667;48.698;8.762;2023-02-11T02:39:49;8.37;;;3.33;;
10867;SDS011;62667;48.698;8.762;2023-02-11T02:42:17;3.77;;;3.47;;
10867;SDS011;62667;48.698;8.762;2023-02-11T02:44:46;4.53;;;4.13;;
10867;SDS011;62667;48.698;8.762;2023-02-11T02:47:15;4.47;;;2.97;;
10867;SDS011;62667;48.698;8.762;2023-02-11T02:49:43;6.53;;;4.07;;
10867;SDS011;62667;48.698;8.762;2023-02-11T02:52:19;13.77;;;4.93;;
10867;SDS011;62667;48.698;8.762;2023-02-11T02:55:03;4.37;;;3.97;;
10867;SDS011;62667;48.698;8.762;2023-02-11T02:57:55;6.77;;;3.50;;
10867;SDS011;62667;48.698;8.762;2023-02-11T03:00:37;2.60;;;2.40;;
10867;SDS011;62667;48.698;8.762;2023-02-11T03:03:16;4.13;;;3.73;;
10867;SDS011;62667;48.698;8.762;2023-02-11T03:05:51;8.40;;;3.33;;
10867;SDS011;62667;48.698;8.762;2023-02-11T03:08:24;5.87;;;3.30;;
10867;SDS011;62667;48.698;8.762;2023-02-11T03:10:56;3.47;;;2.97;;
10867;SDS011;62667;48.698;8.762;2023-02-11T03:13:25;2.73;;;2.53;;
10867;SDS011;62667;48.698;8.762;2023-02-11T03:15:57;5.07;;;3.97;;
10867;SDS011;62667;48.698;8.762;2023-02-11T03:18:30;3.17;;;2.97;;
10867;SDS011;62667;48.698;8.762;2023-02-11T03:20:59;4.73;;;3.60;;
10867;SDS011;62667;48.698;8.762;2023-02-11T03:23:31;4.80;;;3.37;;
10867;SDS011;62667;48.698;8.762;2023-02-11T03:26:03;3.20;;;2.90;;
10867;SDS011;62667;48.698;8.762;2023-02-11T03:28:38;8.40;;;3.80;;
10867;SDS011;62667;48.698;8.762;2023-02-11T03:31:12;2.10;;;2.00;;
10867;SDS011;62667;48.698;8.762;2023-02-11T03:33:48;2.70;;;2.50;;
10867;SDS011;62667;48.698;8.762;2023-02-11T03:36:21;3.10;;;2.80;;
10867;SDS011;62667;48.698;8.762;2023-02-11T03:38:56;3.70;;;3.40;;
10867;SDS011;62667;48.698;8.762;2023-02-11T03:41:26;3.43;;;3.13;;
10867;SDS011;62667;48.698;8.762;2023-02-11T03:43:55;3.90;;;3.43;;
10867;SDS011;62667;48.698;8.762;2023-02-11T03:46:26;4.87;;;2.73;;
10867;SDS011;62667;48.698;8.762;2023-02-11T03:49:00;3.40;;;3.07;;
10867;SDS011;62667;48.698;8.762;2023-02-11T03:51:30;4.50;;;3.73;;
10867;SDS011;62667;48.698;8.762;2023-02-11T03:53:59;3.73;;;3.37;;
10867;SDS011;62667;48.698;8.762;2023-02-11T03:56:32;3.10;;;2.90;;
10867;SDS011;62667;48.698;8.762;2023-02-11T03:59:04;3.60;;;3.30;;
10867;SDS011;62667;48.698;8.762;2023-02-11T04:01:32;2.77;;;2.53;;
10867;SDS011;62667;48.698;8.762;2023-02-11T04:04:01;5.60;;;3.30;;
10867;SDS011;62667;48.698;8.762;2023-02-11T04:06:29;2.90;;;2.70;;
10867;SDS011;62667;48.698;8.762;2023-02-11T04:08:56;11.30;;;3.67;;
10867;SDS011;62667;48.698;8.762;2023-02-11T04:11:24;4.57;;;3.53;;
10867;SDS011;62667;48.698;8.762;2023-02-11T04:13:51;3.20;;;3.00;;
10867;SDS011;62667;48.698;8.762;2023-02-11T04:16:19;3.23;;;2.90;;
10867;SDS011;62667;48.698;8.762;2023-02-11T04:18:46;1.70;;;1.60;;
10867;SDS011;62667;48.698;8.762;2023-02-11T04:21:15;2.77;;;1.67;;
10867;SDS011;62667;48.698;8.762;2023-02-11T04:23:43;3.97;;;3.63;;
10867;SDS011;62667;48.698;8.762;2023-02-11T04:26:10;3.17;;;2.87;;
10867;SDS011;62667;48.698;8.762;2023-02-11T04:28:37;5.40;;;3.83;;
10867;SDS011;62667;48.698;8.762;2023-02-11T04:31:05;6.43;;;4.33;;
10867;SDS011;62667;48.698;8.762;2023-02-11T04:33:32;4.70;;;3.60;;
10867;SDS011;62667;48.698;8.762;2023-02-11T04:36:00;8.27;;;2.13;;
10867;SDS011;62667;48.698;8.762;2023-02-11T04:38:29;3.50;;;3.13;;
10867;SDS011;62667;48.698;8.762;2023-02-11T04:40:56;2.87;;;1.97;;
10867;SDS011;62667;48.698;8.762;2023-02-11T04:43:24;4.37;;;2.33;;
10867;SDS011;62667;48.698;8.762;2023-02-11T04:45:55;2.37;;;2.17;;
10867;SDS011;62667;48.698;8.762;2023-02-11T04:48:22;3.47;;;2.53;;
10867;SDS011;62667;48.698;8.762;2023-02-11T04:50:50;4.47;;;3.50;;
10867;SDS011;62667;48.698;8.762;2023-02-11T04:53:18;7.07;;;3.17;;
10867;SDS011;62667;48.698;8.762;2023-02-11T04:55:48;4.07;;;3.17;;
10867;SDS011;62667;48.698;8.762;2023-02-11T04:58:16;3.73;;;3.43;;
10867;SDS011;62667;48.698;8.762;2023-02-11T05:00:44;2.67;;;2.47;;
10867;SDS011;62667;48.698;8.762;2023-02-11T05:03:12;3.50;;;3.17;;
10867;SDS011;62667;48.698;8.762;2023-02-11T05:05:39;6.87;;;2.30;;
10867;SDS011;62667;48.698;8.762;2023-02-11T05:08:08;2.23;;;2.07;;
10867;SDS011;62667;48.698;8.762;2023-02-11T05:10:36;3.27;;;2.77;;
10867;SDS011;62667;48.698;8.762;2023-02-11T05:13:05;4.27;;;2.87;;
10867;SDS011;62667;48.698;8.762;2023-02-11T05:15:32;2.97;;;2.57;;
10867;SDS011;62667;48.698;8.762;2023-02-11T05:17:59;3.63;;;2.50;;
10867;SDS011;62667;48.698;8.762;2023-02-11T05:20:27;4.23;;;2.57;;
10867;SDS011;62667;48.698;8.762;2023-02-11T05:22:55;2.80;;;2.57;;
10867;SDS011;62667;48.698;8.762;2023-02-11T05:25:22;2.03;;;1.93;;
10867;SDS011;62667;48.698;8.762;2023-02-11T05:27:49;2.27;;;2.17;;
10867;SDS011;62667;48.698;8.762;2023-02-11T05:30:18;3.03;;;2.73;;
10867;SDS011;62667;48.698;8.762;2023-02-11T05:32:46;2.37;;;2.17;;
10867;SDS011;62667;48.698;8.762;2023-02-11T05:35:13;3.43;;;2.90;;
10867;SDS011;62667;48.698;8.762;2023-02-11T05:37:41;1.83;;;1.73;;
10867;SDS011;62667;48.698;8.762;2023-02-11T05:40:09;3.00;;;2.30;;
10867;SDS011;62667;48.698;8.762;2023-02-11T05:42:37;2.33;;;2.13;;
10867;SDS011;62667;48.698;8.762;2023-02-11T05:45:04;4.47;;;2.47;;
10867;SDS011;62667;48.698;8.762;2023-02-11T05:47:34;3.13;;;2.93;;
10867;SDS011;62667;48.698;8.762;2023-02-11T05:50:01;18.23;;;3.00;;
10867;SDS011;62667;48.698;8.762;2023-02-11T05:52:29;2.43;;;2.33;;
10867;SDS011;62667;48.698;8.762;2023-02-11T05:54:56;2.20;;;2.00;;
10867;SDS011;62667;48.698;8.762;2023-02-11T05:57:25;4.33;;;2.37;;
10867;SDS011;62667;48.698;8.762;2023-02-11T05:59:52;2.97;;;2.77;;
10867;SDS011;62667;48.698;8.762;2023-02-11T06:02:20;3.30;;;2.67;;
10867;SDS011;62667;48.698;8.762;2023-02-11T06:04:49;3.03;;;2.43;;
10867;SDS011;62667;48.698;8.762;2023-02-11T06:07:16;4.77;;;2.40;;
10867;SDS011;62667;48.698;8.762;2023-02-11T06:09:43;3.33;;;3.03;;
10867;SDS011;62667;48.698;8.762;2023-02-11T06:12:11;2.93;;;2.73;;
10867;SDS011;62667;48.698;8.762;2023-02-11T06:14:38;4.33;;;1.77;;
10867;SDS011;62667;48.698;8.762;2023-02-11T06:17:06;1.70;;;1.60;;
10867;SDS011;62667;48.698;8.762;2023-02-11T06:19:34;3.13;;;1.80;;
10867;SDS011;62667;48.698;8.762;2023-02-11T06:22:03;9.07;;;2.60;;
10867;SDS011;62667;48.698;8.762;2023-02-11T06:24:30;2.93;;;2.17;;
10867;SDS011;62667;48.698;8.762;2023-02-11T06:26:58;1.83;;;1.73;;
10867;SDS011;62667;48.698;8.762;2023-02-11T06:29:25;3.00;;;2.07;;
10867;SDS011;62667;48.698;8.762;2023-02-11T06:31:53;1.77;;;1.67;;
10867;SDS011;62667;48.698;8.762;2023-02-11T06:34:20;1.40;;;1.37;;
10867;SDS011;62667;48.698;8.762;2023-02-11T06:36:48;2.17;;;1.93;;
10867;SDS011;62667;48.698;8.762;2023-02-11T06:39:17;2.03;;;1.73;;
10867;SDS011;62667;48.698;8.762;2023-02-11T06:41:44;1.17;;;1.17;;
10867;SDS011;62667;48.698;8.762;2023-02-11T06:44:11;2.03;;;1.83;;
10867;SDS011;62667;48.698;8.762;2023-02-11T06:46:39;2.50;;;2.30;;
10867;SDS011;62667;48.698;8.762;2023-02-11T06:49:06;2.80;;;2.60;;
10867;SDS011;62667;48.698;8.762;2023-02-11T06:51:34;1.67;;;1.37;;
10867;SDS011;62667;48.698;8.762;2023-02-11T06:54:03;2.03;;;1.93;;
10867;SDS011;62667;48.698;8.762;2023-02-11T06:56:32;2.50;;;2.30;;
10867;SDS011;62667;48.698;8.762;2023-02-11T06:59:01;3.30;;;3.00;;
10867;SDS011;62667;48.698;8.762;2023-02-11T07:01:28;2.20;;;2.10;;
10867;SDS011;62667;48.698;8.762;2023-02-11T07:03:55;2.43;;;2.23;;
10867;SDS011;62667;48.698;8.762;2023-02-11T07:06:23;2.90;;;2.70;;
10867;SDS011;62667;48.698;8.762;2023-02-11T07:08:52;2.80;;;2.60;;
10867;SDS011;62667;48.698;8.762;2023-02-11T07:11:21;2.80;;;2.60;;
10867;SDS011;62667;48.698;8.762;2023-02-11T07:13:53;3.67;;;2.30;;
10867;SDS011;62667;48.698;8.762;2023-02-11T07:16:22;2.00;;;1.90;;
10867;SDS011;62667;48.698;8.762;2023-02-11T07:18:49;3.37;;;2.43;;
10867;SDS011;62667;48.698;8.762;2023-02-11T07:21:18;2.00;;;1.90;;
10867;SDS011;62667;48.698;8.762;2023-02-11T07:23:48;2.53;;;2.33;;
10867;SDS011;62667;48.698;8.762;2023-02-11T07:26:16;2.70;;;2.43;;
10867;SDS011;62667;48.698;8.762;2023-02-11T07:28:45;2.43;;;2.33;;
10867;SDS011;62667;48.698;8.762;2023-02-11T07:31:14;3.90;;;2.70;;
10867;SDS011;62667;48.698;8.762;2023-02-11T07:33:44;3.93;;;2.93;;
10867;SDS011;62667;48.698;8.762;2023-02-11T07:36:13;2.53;;;2.33;;
10867;SDS011;62667;48.698;8.762;2023-02-11T07:38:41;1.63;;;1.57;;
10867;SDS011;62667;48.698;8.762;2023-02-11T07:41:11;3.40;;;2.53;;
10867;SDS011;62667;48.698;8.762;2023-02-11T07:43:41;2.27;;;2.10;;
10867;SDS011;62667;48.698;8.762;2023-02-11T07:46:10;4.03;;;3.03;;
10867;SDS011;62667;48.698;8.762;2023-02-11T07:48:42;2.70;;;2.50;;
10867;SDS011;62667;48.698;8.762;2023-02-11T07:51:11;2.03;;;1.93;;
10867;SDS011;62667;48.698;8.762;2023-02-11T07:53:40;2.13;;;1.93;;
10867;SDS011;62667;48.698;8.762;2023-02-11T07:56:08;2.27;;;2.17;;
10867;SDS011;62667;48.698;8.762;2023-02-11T07:58:37;7.37;;;3.00;;
10867;SDS011;62667;48.698;8.762;2023-02-11T08:01:06;5.57;;;3.00;;
10867;SDS011;62667;48.698;8.762;2023-02-11T08:03:37;2.57;;;2.40;;
10867;SDS011;62667;48.698;8.762;2023-02-11T08:06:07;3.53;;;2.27;;
10867;SDS011;62667;48.698;8.762;2023-02-11T08:08:36;2.70;;;2.50;;
10867;SDS011;62667;48.698;8.762;2023-02-11T08:11:04;3.50;;;2.90;;
10867;SDS011;62667;48.698;8.762;2023-02-11T08:13:33;3.17;;;1.80;;
10867;SDS011;62667;48.698;8.762;2023-02-11T08:16:00;3.27;;;2.97;;
10867;SDS011;62667;48.698;8.762;2023-02-11T08:18:27;5.07;;;2.40;;
10867;SDS011;62667;48.698;8.762;2023-02-11T08:20:58;2.23;;;2.13;;
10867;SDS011;62667;48.698;8.762;2023-02-11T08:23:30;3.43;;;2.20;;
10867;SDS011;62667;48.698;8.762;2023-02-11T08:25:59;2.23;;;2.03;;
10867;SDS011;62667;48.698;8.762;2023-02-11T08:28:27;3.40;;;3.10;;
10867;SDS011;62667;48.698;8.762;2023-02-11T08:30:54;2.37;;;2.27;;
10867;SDS011;62667;48.698;8.762;2023-02-11T08:33:21;2.00;;;1.90;;
10867;SDS011;62667;48.698;8.762;2023-02-11T08:35:48;3.80;;;3.40;;
10867;SDS011;62667;48.698;8.762;2023-02-11T08:38:17;2.27;;;2.07;;
10867;SDS011;62667;48.698;8.762;2023-02-11T08:40:44;2.30;;;2.17;;
10867;SDS011;62667;48.698;8.762;2023-02-11T08:43:12;4.23;;;2.60;;
10867;SDS011;62667;48.698;8.762;2023-02-11T08:45:40;1.67;;;1.57;;
10867;SDS011;62667;48.698;8.762;2023-02-11T08:48:07;2.03;;;1.90;;
10867;SDS011;62667;48.698;8.762;2023-02-11T08:50:34;2.10;;;1.97;;
10867;SDS011;62667;48.698;8.762;2023-02-11T08:53:04;1.70;;;1.60;;
10867;SDS011;62667;48.698;8.762;2023-02-11T08:55:32;1.77;;;1.67;;
10867;SDS011;62667;48.698;8.762;2023-02-11T08:57:59;1.77;;;1.67;;
10867;SDS011;62667;48.698;8.762;2023-02-11T09:00:27;1.90;;;1.80;;
10867;SDS011;62667;48.698;8.762;2023-02-11T09:02:54;1.90;;;1.80;;
10867;SDS011;62667;48.698;8.762;2023-02-11T09:05:22;2.47;;;2.20;;
10867;SDS011;62667;48.698;8.762;2023-02-11T09:07:49;2.73;;;2.50;;
10867;SDS011;62667;48.698;8.762;2023-02-11T09:10:16;8.20;;;2.03;;
10867;SDS011;62667;48.698;8.762;2023-02-11T09:12:45;1.13;;;1.13;;
10867;SDS011;62667;48.698;8.762;2023-02-11T09:15:12;1.67;;;1.57;;
10867;SDS011;62667;48.698;8.762;2023-02-11T09:17:39;1.90;;;1.50;;
10867;SDS011;62667;48.698;8.762;2023-02-11T09:20:07;2.67;;;2.57;;
10867;SDS011;62667;48.698;8.762;2023-02-11T09:22:35;1.70;;;1.60;;
10867;SDS011;62667;48.698;8.762;2023-02-11T09:25:02;1.60;;;1.50;;
10867;SDS011;62667;48.698;8.762;2023-02-11T09:27:30;1.00;;;1.00;;
10867;SDS011;62667;48.698;8.762;2023-02-11T09:29:58;1.47;;;1.37;;
10867;SDS011;62667;48.698;8.762;2023-02-11T09:32:25;1.30;;;1.20;;
10867;SDS011;62667;48.698;8.762;2023-02-11T09:34:53;2.27;;;2.07;;
10867;SDS011;62667;48.698;8.762;2023-02-11T09:37:20;1.53;;;1.53;;
10867;SDS011;62667;48.698;8.762;2023-02-11T09:39:47;2.20;;;2.10;;
10867;SDS011;62667;48.698;8.762;2023-02-11T09:42:30;1.07;;;1.03;;
10867;SDS011;62667;48.698;8.762;2023-02-11T09:45:11;1.93;;;1.80;;
10867;SDS011;62667;48.698;8.762;2023-02-11T09:47:45;1.47;;;1.37;;
10867;SDS011;62667;48.698;8.762;2023-02-11T09:50:22;3.13;;;1.70;;
10867;SDS011;62667;48.698;8.762;2023-02-11T09:52:56;1.90;;;1.80;;
10867;SDS011;62667;48.698;8.762;2023-02-11T09:55:28;1.83;;;1.73;;
10867;SDS011;62667;48.698;8.762;2023-02-11T09:57:59;1.60;;;1.50;;
10867;SDS011;62667;48.698;8.762;2023-02-11T10:00:32;1.10;;;1.10;;
10867;SDS011;62667;48.698;8.762;2023-02-11T10:03:15;9.83;;;2.63;;
10867;SDS011;62667;48.698;8.762;2023-02-11T10:06:23;1.20;;;1.20;;
10867;SDS011;62667;48.698;8.762;2023-02-11T10:12:12;1.70;;;1.60;;
10867;SDS011;62667;48.698;8.762;2023-02-11T10:14:57;0.90;;;0.90;;
10867;SDS011;62667;48.698;8.762;2023-02-11T10:17:47;2.00;;;1.47;;
10867;SDS011;62667;48.698;8.762;2023-02-11T10:20:32;1.27;;;1.27;;
10867;SDS011;62667;48.698;8.762;2023-02-11T10:23:07;1.03;;;1.03;;
10867;SDS011;62667;48.698;8.762;2023-02-11T10:25:42;1.70;;;1.30;;
10867;SDS011;62667;48.698;8.762;2023-02-11T10:28:13;1.00;;;1.00;;
10867;SDS011;62667;48.698;8.762;2023-02-11T10:30:44;1.20;;;1.20;;
10867;SDS011;62667;48.698;8.762;2023-02-11T10:33:25;0.90;;;0.90;;
10867;SDS011;62667;48.698;8.762;2023-02-11T10:35:56;1.90;;;1.73;;
10867;SDS011;62667;48.698;8.762;2023-02-11T10:38:24;1.10;;;1.10;;
10867;SDS011;62667;48.698;8.762;2023-02-11T10:40:52;1.57;;;1.23;;
10867;SDS011;62667;48.698;8.762;2023-02-11T10:43:21;1.33;;;1.23;;
10867;SDS011;62667;48.698;8.762;2023-02-11T10:45:52;1.20;;;1.20;;
10867;SDS011;62667;48.698;8.762;2023-02-11T10:51:20;1.00;;;1.00;;
10867;SDS011;62667;48.698;8.762;2023-02-11T10:54:05;0.70;;;0.70;;
10867;SDS011;62667;48.698;8.762;2023-02-11T10:56:39;1.40;;;1.30;;
10867;SDS011;62667;48.698;8.762;2023-02-11T10:59:13;1.10;;;1.10;;
10867;SDS011;62667;48.698;8.762;2023-02-11T11:01:51;1.37;;;1.27;;
10867;SDS011;62667;48.698;8.762;2023-02-11T11:04:36;0.97;;;0.97;;
10867;SDS011;62667;48.698;8.762;2023-02-11T11:07:09;1.77;;;1.53;;
10867;SDS011;62667;48.698;8.762;2023-02-11T11:09:45;0.90;;;0.90;;
10867;SDS011;62667;48.698;8.762;2023-02-11T11:12:26;1.03;;;1.03;;
10867;SDS011;62667;48.698;8.762;2023-02-11T11:15:17;1.40;;;1.00;;
10867;SDS011;62667;48.698;8.762;2023-02-11T11:17:48;1.13;;;1.13;;
10867;SDS011;62667;48.698;8.762;2023-02-11T11:20:21;0.80;;;0.80;;
10867;SDS011;62667;48.698;8.762;2023-02-11T11:22:53;0.90;;;0.90;;
10867;SDS011;62667;48.698;8.762;2023-02-11T11:25:36;1.03;;;1.03;;
10867;SDS011;62667;48.698;8.762;2023-02-11T11:28:16;0.80;;;0.80;;
10867;SDS011;62667;48.698;8.762;2023-02-11T11:30:49;6.50;;;1.63;;
10867;SDS011;62667;48.698;8.762;2023-02-11T11:33:22;1.50;;;1.40;;
10867;SDS011;62667;48.698;8.762;2023-02-11T11:35:58;1.10;;;1.00;;
10867;SDS011;62667;48.698;8.762;2023-02-11T11:38:31;0.80;;;0.80;;
10867;SDS011;62667;48.698;8.762;2023-02-11T11:41:15;0.93;;;0.90;;
10867;SDS011;62667;48.698;8.762;2023-02-11T11:43:54;0.83;;;0.83;;
10867;SDS011;62667;48.698;8.762;2023-02-11T11:46:30;0.87;;;0.87;;
10867;SDS011;62667;48.698;8.762;2023-02-11T11:49:03;1.37;;;1.27;;
10867;SDS011;62667;48.698;8.762;2023-02-11T11:51:44;1.43;;;1.33;;
10867;SDS011;62667;48.698;8.762;2023-02-11T11:54:23;0.87;;;0.87;;
10867;SDS011;62667;48.698;8.762;2023-02-11T11:56:53;0.83;;;0.83;;
10867;SDS011;62667;48.698;8.762;2023-02-11T11:59:26;0.87;;;0.87;;
10867;SDS011;62667;48.698;8.762;2023-02-11T12:01:59;0.97;;;0.97;;
10867;SDS011;62667;48.698;8.762;2023-02-11T12:04:46;0.50;;;0.50;;
10867;SDS011;62667;48.698;8.762;2023-02-11T12:07:30;1.20;;;1.20;;
10867;SDS011;62667;48.698;8.762;2023-02-11T12:10:16;1.33;;;1.27;;
10867;SDS011;62667;48.698;8.762;2023-02-11T12:12:56;1.33;;;1.33;;
10867;SDS011;62667;48.698;8.762;2023-02-11T12:15:35;1.60;;;1.50;;
10867;SDS011;62667;48.698;8.762;2023-02-11T12:18:16;1.40;;;1.30;;
10867;SDS011;62667;48.698;8.762;2023-02-11T12:20:56;0.80;;;0.80;;
10867;SDS011;62667;48.698;8.762;2023-02-11T12:23:40;1.00;;;0.90;;
10867;SDS011;62667;48.698;8.762;2023-02-11T12:26:25;1.10;;;1.10;;
10867;SDS011;62667;48.698;8.762;2023-02-11T12:29:02;1.27;;;1.27;;
10867;SDS011;62667;48.698;8.762;2023-02-11T12:31:45;1.50;;;1.47;;
10867;SDS011;62667;48.698;8.762;2023-02-11T12:34:35;1.97;;;1.87;;
10867;SDS011;62667;48.698;8.762;2023-02-11T12:37:27;0.90;;;0.90;;
10867;SDS011;62667;48.698;8.762;2023-02-11T12:40:13;1.17;;;1.17;;
10867;SDS011;62667;48.698;8.762;2023-02-11T12:42:49;1.33;;;1.20;;
10867;SDS011;62667;48.698;8.762;2023-02-11T12:49:06;1.07;;;1.07;;
10867;SDS011;62667;48.698;8.762;2023-02-11T12:52:00;0.87;;;0.87;;
10867;SDS011;62667;48.698;8.762;2023-02-11T12:54:45;1.13;;;1.13;;
10867;SDS011;62667;48.698;8.762;2023-02-11T12:57:21;1.00;;;0.90;;
10867;SDS011;62667;48.698;8.762;2023-02-11T12:59:54;1.27;;;1.23;;
10867;SDS011;62667;48.698;8.762;2023-02-11T13:02:32;1.30;;;1.30;;
10867;SDS011;62667;48.698;8.762;2023-02-11T13:05:16;1.03;;;1.03;;
10867;SDS011;62667;48.698;8.762;2023-02-11T13:07:51;0.77;;;0.77;;
10867;SDS011;62667;48.698;8.762;2023-02-11T13:10:24;1.20;;;1.20;;
10867;SDS011;62667;48.698;8.762;2023-02-11T13:12:58;1.10;;;1.10;;
10867;SDS011;62667;48.698;8.762;2023-02-11T13:15:42;0.90;;;0.90;;
10867;SDS011;62667;48.698;8.762;2023-02-11T13:18:21;1.00;;;1.00;;
10867;SDS011;62667;48.698;8.762;2023-02-11T13:24:06;1.40;;;1.30;;
10867;SDS011;62667;48.698;8.762;2023-02-11T13:26:45;0.57;;;0.57;;
10867;SDS011;62667;48.698;8.762;2023-02-11T13:29:27;0.80;;;0.80;;
10867;SDS011;62667;48.698;8.762;2023-02-11T13:32:06;2.20;;;1.27;;
10867;SDS011;62667;48.698;8.762;2023-02-11T13:34:55;0.85;;;0.85;;
10867;SDS011;62667;48.698;8.762;2023-02-11T13:37:24;0.80;;;0.80;;
10867;SDS011;62667;48.698;8.762;2023-02-11T13:39:58;0.57;;;0.57;;
10867;SDS011;62667;48.698;8.762;2023-02-11T13:42:27;1.50;;;1.40;;
10867;SDS011;62667;48.698;8.762;2023-02-11T13:44:57;1.08;;;1.08;;
10867;SDS011;62667;48.698;8.762;2023-02-11T13:47:26;1.73;;;1.48;;
10867;SDS011;62667;48.698;8.762;2023-02-11T13:49:57;1.33;;;1.23;;
10867;SDS011;62667;48.698;8.762;2023-02-11T13:52:31;1.02;;;1.02;;
10867;SDS011;62667;48.698;8.762;2023-02-11T13:55:04;3.30;;;2.97;;
10867;SDS011;62667;48.698;8.762;2023-02-11T13:57:45;2.05;;;1.95;;
10867;SDS011;62667;48.698;8.762;2023-02-11T14:00:46;1.60;;;1.50;;
10867;SDS011;62667;48.698;8.762;2023-02-11T14:03:23;2.08;;;1.88;;
10867;SDS011;62667;48.698;8.762;2023-02-11T14:06:16;2.10;;;1.85;;
10867;SDS011;62667;48.698;8.762;2023-02-11T14:21:30;1.73;;;1.63;;
10867;SDS011;62667;48.698;8.762;2023-02-11T14:27:17;1.48;;;1.38;;
10867;SDS011;62667;48.698;8.762;2023-02-11T14:30:01;1.33;;;1.33;;
10867;SDS011;62667;48.698;8.762;2023-02-11T14:33:04;1.55;;;1.45;;
10867;SDS011;62667;48.698;8.762;2023-02-11T14:35:53;1.17;;;1.17;;
10867;SDS011;62667;48.698;8.762;2023-02-11T14:38:36;1.45;;;1.40;;
10867;SDS011;62667;48.698;8.762;2023-02-11T14:41:21;2.35;;;1.85;;
10867;SDS011;62667;48.698;8.762;2023-02-11T14:43:51;2.10;;;1.90;;
10867;SDS011;62667;48.698;8.762;2023-02-11T14:46:22;1.67;;;1.55;;
10867;SDS011;62667;48.698;8.762;2023-02-11T14:48:54;1.15;;;1.10;;
10867;SDS011;62667;48.698;8.762;2023-02-11T14:51:28;2.30;;;1.45;;
10867;SDS011;62667;48.698;8.762;2023-02-11T14:54:01;1.70;;;1.60;;
10867;SDS011;62667;48.698;8.762;2023-02-11T14:56:39;1.52;;;1.42;;
10867;SDS011;62667;48.698;8.762;2023-02-11T14:59:12;1.88;;;1.73;;
10867;SDS011;62667;48.698;8.762;2023-02-11T15:01:45;1.65;;;1.55;;
10867;SDS011;62667;48.698;8.762;2023-02-11T15:04:22;1.30;;;1.30;;
10867;SDS011;62667;48.698;8.762;2023-02-11T15:06:52;1.88;;;1.77;;
10867;SDS011;62667;48.698;8.762;2023-02-11T15:09:21;1.38;;;1.30;;
10867;SDS011;62667;48.698;8.762;2023-02-11T15:11:53;1.48;;;1.38;;
10867;SDS011;62667;48.698;8.762;2023-02-11T15:14:23;2.47;;;1.85;;
10867;SDS011;62667;48.698;8.762;2023-02-11T15:16:52;1.38;;;1.30;;
10867;SDS011;62667;48.698;8.762;2023-02-11T15:19:23;1.13;;;1.13;;
10867;SDS011;62667;48.698;8.762;2023-02-11T15:21:56;1.73;;;1.48;;
10867;SDS011;62667;48.698;8.762;2023-02-11T15:24:25;1.13;;;1.13;;
10867;SDS011;62667;48.698;8.762;2023-02-11T15:26:55;1.15;;;1.02;;
10867;SDS011;62667;48.698;8.762;2023-02-11T15:29:24;0.90;;;0.90;;
10867;SDS011;62667;48.698;8.762;2023-02-11T15:32:05;0.95;;;0.95;;
10867;SDS011;62667;48.698;8.762;2023-02-11T15:34:38;4.60;;;1.42;;
10867;SDS011;62667;48.698;8.762;2023-02-11T15:37:09;1.95;;;1.30;;
10867;SDS011;62667;48.698;8.762;2023-02-11T15:39:42;0.85;;;0.85;;
10867;SDS011;62667;48.698;8.762;2023-02-11T15:42:20;0.80;;;0.80;;
10867;SDS011;62667;48.698;8.762;2023-02-11T15:47:35;1.05;;;1.05;;
10867;SDS011;62667;48.698;8.762;2023-02-11T15:50:04;2.10;;;0.80;;
10867;SDS011;62667;48.698;8.762;2023-02-11T15:52:34;3.17;;;1.75;;
10867;SDS011;62667;48.698;8.762;2023-02-11T15:55:01;1.00;;;1.00;;